D/T METAR WX W/DIR W/SPE G/SPE TEMP DEWP
25/02/20 14:50 EGKB 251450Z 26013KT 220V300 9999 SHRA FEW020 SCT032 04/03 Q0998 SHRA W (260°) 15.0mph 4°C 3°C
25/02/20 13:50 EGKB 251350Z 25009KT 200V290 9999 VCSH SCT030 07/00 Q0998 VCSH WSW (250°) 10.4mph 7°C 0°C
25/02/20 13:20 EGKB 251320Z 26015KT 230V300 9999 SCT032 06/M00 Q0999 W (260°) 17.3mph 6°C 0°C
25/02/20 12:20 EGKB 251220Z 25009KT 230V290 9999 FEW025 07/02 Q0999 WSW (250°) 10.4mph 7°C 2°C
25/02/20 11:50 EGKB 251150Z 25012KT 220V300 9999 FEW025 06/01 Q1000 WSW (250°) 13.8mph 6°C 1°C
25/02/20 11:20 EGKB 251120Z 25012KT 220V280 9999 FEW023 06/02 Q1000 WSW (250°) 13.8mph 6°C 2°C
25/02/20 10:50 EGKB 251050Z 25014KT 220V290 9999 FEW023 06/02 Q1001 WSW (250°) 16.1mph 6°C 2°C
25/02/20 10:20 EGKB 251020Z 26011KT 220V290 9999 FEW023 06/02 Q1001 W (260°) 12.7mph 6°C 2°C
25/02/20 09:50 EGKB 250950Z 25013G24KT 230V290 9999 FEW021 06/02 Q1001 WSW (250°) 15.0mph 27.6mph 6°C 2°C
25/02/20 09:20 EGKB 250920Z 25013KT 210V290 9999 FEW020 05/02 Q1001 WSW (250°) 15.0mph 5°C 2°C
25/02/20 08:50 EGKB 250850Z 23010KT 200V280 9999 FEW017 05/02 Q1002 SW (230°) 11.5mph 5°C 2°C
25/02/20 08:20 EGKB 250820Z 23011KT 200V260 9999 SCT017 04/02 Q1002 SW (230°) 12.7mph 4°C 2°C
25/02/20 07:50 EGKB 250750Z 23010KT 9999 FEW015 04/02 Q1002 SW (230°) 11.5mph 4°C 2°C
25/02/20 07:20 EGKB 250720Z 23011KT 9999 FEW015 04/02 Q1002 SW (230°) 12.7mph 4°C 2°C
25/02/20 06:50 EGKB 250650Z 23011KT 9999 VCSH SCT020 04/02 Q1003 VCSH SW (230°) 12.7mph 4°C 2°C
25/02/20 06:20 EGKB 250620Z 23009KT 9999 FEW030 04/02 Q1003 SW (230°) 10.4mph 4°C 2°C
24/02/20 22:20 EGKB 242220Z 26014KT 230V290 CAVOK 07/04 Q1005 W (260°) 16.1mph 7°C 4°C
24/02/20 21:50 EGKB 242150Z 26012KT 230V290 CAVOK 07/05 Q1005 W (260°) 13.8mph 7°C 5°C
24/02/20 21:20 EGKB 242120Z 26016G26KT 230V290 CAVOK 07/05 Q1005 W (260°) 18.4mph 29.9mph 7°C 5°C
24/02/20 20:50 EGKB 242050Z 25013KT 220V280 CAVOK 08/05 Q1005 WSW (250°) 15.0mph 8°C 5°C
24/02/20 20:20 EGKB 242020Z 25016G27KT 210V290 CAVOK 08/05 Q1005 WSW (250°) 18.4mph 31.1mph 8°C 5°C
24/02/20 19:50 EGKB 241950Z 25019G32KT 9999 FEW025 09/05 Q1005 WSW (250°) 21.9mph 36.8mph 9°C 5°C
24/02/20 19:20 EGKB 241920Z 27015G25KT 240V300 9999 SCT018 BKN028 09/06 Q1005 W (270°) 17.3mph 28.8mph 9°C 6°C
24/02/20 18:20 EGKB 241820Z 24012KT 9999 BKN017 10/08 Q1004 WSW (240°) 13.8mph 10°C 8°C
24/02/20 17:50 EGKB 241750Z 23015G25KT 9999 BKN010 10/08 Q1004 SW (230°) 17.3mph 28.8mph 10°C 8°C
24/02/20 17:20 EGKB 241720Z 23017KT 9999 BKN010 10/09 Q1004 SW (230°) 19.6mph 10°C 9°C
24/02/20 16:50 EGKB 241650Z 23016G27KT 9999 BKN015 10/09 Q1004 SW (230°) 18.4mph 31.1mph 10°C 9°C
24/02/20 16:20 EGKB 241620Z 22019G31KT 9999 3000S -RA BKN010 09/09 Q1004 -RA SW (220°) 21.9mph 35.7mph 9°C 9°C
24/02/20 15:50 EGKB 241550Z 22021G33KT 200V260 9999 BKN008 09/09 Q1004 SW (220°) 24.2mph 38.0mph 9°C 9°C
24/02/20 15:20 EGKB 241520Z 22020G31KT 190V250 9999 BKN008 09/09 Q1004 SW (220°) 23.0mph 35.7mph 9°C 9°C
24/02/20 14:50 EGKB 241450Z 22019G30KT 9999 BKN010 09/08 Q1005 SW (220°) 21.9mph 34.5mph 9°C 8°C
24/02/20 14:20 EGKB 241420Z 22018G29KT 200V260 9000 -RA BKN010 09/08 Q1006 -RA SW (220°) 20.7mph 33.4mph 9°C 8°C
24/02/20 13:50 EGKB 241350Z 22019G30KT 9000 -RA BKN009 09/08 Q1006 -RA SW (220°) 21.9mph 34.5mph 9°C 8°C
24/02/20 13:20 EGKB 241320Z 22018KT 6000 -RA BKN009 09/08 Q1006 -RA SW (220°) 20.7mph 9°C 8°C
24/02/20 12:50 EGKB 241250Z 22019G29KT 5000 -RA BR BKN008 09/08 Q1007 -RA BR SW (220°) 21.9mph 33.4mph 9°C 8°C
24/02/20 12:20 EGKB 241220Z 22020G31KT 3500 -RADZ BR BKN006 09/08 Q1007 -RA -DZ BR SW (220°) 23.0mph 35.7mph 9°C 8°C
24/02/20 11:50 EGKB 241150Z 22019G30KT 4000 -DZ BR BKN008 09/08 Q1008 -DZ BR SW (220°) 21.9mph 34.5mph 9°C 8°C
24/02/20 11:20 EGKB 241120Z 22020G32KT 3000 -DZ BR BKN008 09/08 Q1008 -DZ BR SW (220°) 23.0mph 36.8mph 9°C 8°C
24/02/20 10:50 EGKB 241050Z 22021G33KT 3000 -DZ BR BKN007 09/08 Q1009 -DZ BR SW (220°) 24.2mph 38.0mph 9°C 8°C
24/02/20 10:20 EGKB 241020Z 22021G35KT 2500 -DZ BR BKN007 09/09 Q1009 -DZ BR SW (220°) 24.2mph 40.3mph 9°C 9°C
24/02/20 09:50 EGKB 240950Z 22022G37KT 9999 BKN009 09/08 Q1009 SW (220°) 25.3mph 42.6mph 9°C 8°C
24/02/20 09:20 EGKB 240920Z 22019G32KT 200V260 9000 -DZ BKN009 09/08 Q1010 -DZ SW (220°) 21.9mph 36.8mph 9°C 8°C
24/02/20 08:50 EGKB 240850Z 23017G32KT 200V260 9999 -DZ BKN010 09/08 Q1010 -DZ SW (230°) 19.6mph 36.8mph 9°C 8°C
24/02/20 08:20 EGKB 240820Z 22020G34KT 9999 BKN012 09/08 Q1010 SW (220°) 23.0mph 39.1mph 9°C 8°C
24/02/20 07:50 EGKB 240750Z 22025G38KT 9999 BKN013 09/08 Q1010 SW (220°) 28.8mph 43.7mph 9°C 8°C
24/02/20 07:20 EGKB 240720Z 22019G30KT 190V260 9999 BKN009 09/08 Q1011 SW (220°) 21.9mph 34.5mph 9°C 8°C
24/02/20 06:50 EGKB 240650Z 21021G31KT 190V250 9999 -DZ BKN004 09/09 Q1012 -DZ SSW (210°) 24.2mph 35.7mph 9°C 9°C
24/02/20 06:20 EGKB 240620Z 18016KT 3000 -RADZ BR BKN003 06/06 Q1013 -RA -DZ BR S (180°) 18.4mph 6°C 6°C